Time;durP1;ratioP1;P1;durP2;ratioP2;P2;SDS_P1;SDS_P2;PMS_P1;PMS_P2;Temp;Humidity;BMP_temperature;BMP_pressure;BME280_temperature;BME280_humidity;BME280_pressure;Samples;Min_cycle;Max_cycle;Signal;HPM_P1;HPM_P2
2021/05/25 00:00:07;;;;;;;0.60;0.60;;;9.50;84.90;;;;;;5066245;28;20146;-76
2021/05/25 00:02:32;;;;;;;1.90;0.70;;;9.50;85.60;;;;;;5051315;28;20494;-76
2021/05/25 00:04:58;;;;;;;2.58;0.60;;;9.50;85.50;;;;;;5067961;28;20100;-76
2021/05/25 00:07:23;;;;;;;0.50;0.50;;;9.50;86.00;;;;;;5052175;28;20051;-75
2021/05/25 00:09:49;;;;;;;0.68;0.68;;;9.40;85.70;;;;;;5069425;28;20048;-76
2021/05/25 00:12:15;;;;;;;0.75;0.75;;;9.50;86.10;;;;;;5050380;28;20023;-76
2021/05/25 00:14:41;;;;;;;0.70;0.70;;;9.50;86.00;;;;;;5068078;28;20610;-76
2021/05/25 00:17:07;;;;;;;0.70;0.70;;;9.50;86.20;;;;;;5051146;28;20032;-76
2021/05/25 00:19:32;;;;;;;1.00;0.73;;;9.50;86.10;;;;;;5053331;28;20016;-76
2021/05/25 00:21:58;;;;;;;1.15;0.40;;;9.40;86.60;;;;;;5048549;28;20070;-76
2021/05/25 00:24:24;;;;;;;0.77;0.50;;;9.50;86.70;;;;;;5053895;28;20510;-76
2021/05/25 00:26:49;;;;;;;0.73;0.73;;;9.50;86.50;;;;;;5051098;28;20029;-76
2021/05/25 00:29:15;;;;;;;0.70;0.57;;;9.40;86.60;;;;;;5049017;28;20500;-76
2021/05/25 00:31:41;;;;;;;1.35;0.77;;;9.50;86.90;;;;;;5053924;28;20059;-77
2021/05/25 00:34:07;;;;;;;4.63;0.82;;;9.50;86.50;;;;;;5058414;28;20063;-75
2021/05/25 00:36:36;;;;;;;1.17;0.60;;;9.50;86.50;;;;;;5057884;28;20085;-76
2021/05/25 00:39:06;;;;;;;1.15;0.90;;;9.50;86.50;;;;;;5072274;28;20351;-75
2021/05/25 00:41:34;;;;;;;1.42;0.80;;;9.50;86.90;;;;;;5051155;28;20036;-74
2021/05/25 00:44:00;;;;;;;0.55;0.55;;;9.40;86.50;;;;;;5055319;28;20032;-76
2021/05/25 00:46:26;;;;;;;0.70;0.70;;;9.40;86.90;;;;;;5056309;28;20120;-76
2021/05/25 00:48:51;;;;;;;0.50;0.50;;;9.40;86.60;;;;;;5055469;28;20028;-76
2021/05/25 00:51:17;;;;;;;0.82;0.70;;;9.50;86.50;;;;;;5072675;28;20035;-76
2021/05/25 00:53:43;;;;;;;0.68;0.68;;;9.40;86.10;;;;;;5058208;28;20025;-76
2021/05/25 00:56:09;;;;;;;2.30;0.80;;;9.40;86.00;;;;;;5060668;28;20322;-76
2021/05/25 00:58:35;;;;;;;0.30;0.30;;;9.40;86.20;;;;;;5074308;28;20567;-75
2021/05/25 01:01:02;;;;;;;0.82;0.82;;;9.40;86.20;;;;;;5054715;28;20431;-75
2021/05/25 01:03:28;;;;;;;0.60;0.60;;;9.50;86.30;;;;;;5050090;28;20035;-76
2021/05/25 01:05:53;;;;;;;0.50;0.50;;;9.50;86.30;;;;;;5055224;28;20036;-76
2021/05/25 01:08:20;;;;;;;0.77;0.60;;;9.50;85.80;;;;;;5052227;28;20025;-76
2021/05/25 01:10:55;;;;;;;0.65;0.65;;;9.50;85.80;;;;;;5058233;28;20595;-75
2021/05/25 01:13:23;;;;;;;3.60;0.90;;;9.50;86.20;;;;;;5071214;28;20636;-75
2021/05/25 01:15:50;;;;;;;1.65;0.57;;;9.50;86.10;;;;;;5052882;28;20461;-77
2021/05/25 01:18:16;;;;;;;0.65;0.65;;;9.40;86.20;;;;;;5055923;28;20140;-75
2021/05/25 01:20:46;;;;;;;0.75;0.75;;;9.40;86.10;;;;;;5054317;28;20021;-75
2021/05/25 01:23:11;;;;;;;1.13;0.80;;;9.40;85.80;;;;;;5069275;28;20108;-75
2021/05/25 01:25:45;;;;;;;1.90;0.90;;;9.40;85.50;;;;;;5057665;28;20056;-76
2021/05/25 01:28:12;;;;;;;0.80;0.80;;;9.40;85.80;;;;;;5057532;28;20047;-76
2021/05/25 01:30:44;;;;;;;0.98;0.90;;;9.40;85.60;;;;;;5056207;28;20048;-75
2021/05/25 01:33:11;;;;;;;2.45;0.80;;;9.40;85.80;;;;;;5057242;28;20040;-76
2021/05/25 01:35:38;;;;;;;1.40;0.52;;;9.40;85.60;;;;;;5073322;28;20016;-75
2021/05/25 01:38:07;;;;;;;1.27;0.80;;;9.40;85.80;;;;;;5060949;28;20049;-76
2021/05/25 01:40:33;;;;;;;4.25;1.58;;;9.40;85.90;;;;;;5062792;28;20028;-75
2021/05/25 01:42:59;;;;;;;1.02;0.70;;;9.40;86.00;;;;;;5073136;28;20071;-75
2021/05/25 01:45:31;;;;;;;0.70;0.70;;;9.40;85.80;;;;;;5057033;28;20048;-76
2021/05/25 01:47:58;;;;;;;1.13;0.90;;;9.30;86.10;;;;;;5056029;28;20052;-76
2021/05/25 01:50:26;;;;;;;0.90;0.75;;;9.30;86.10;;;;;;5051250;28;20032;-76
2021/05/25 01:52:59;;;;;;;0.50;0.50;;;9.30;86.30;;;;;;5070447;28;20493;-76
2021/05/25 01:55:30;;;;;;;1.17;0.80;;;9.30;86.30;;;;;;5050477;28;20185;-75
2021/05/25 01:57:59;;;;;;;0.60;0.60;;;9.30;86.20;;;;;;5049045;28;20384;-77
2021/05/25 02:00:25;;;;;;;0.65;0.65;;;9.30;86.50;;;;;;5072265;28;20107;-75
2021/05/25 02:02:51;;;;;;;0.80;0.68;;;9.30;86.90;;;;;;5054102;28;20048;-76
2021/05/25 02:05:18;;;;;;;0.93;0.88;;;9.20;86.50;;;;;;5055134;28;20020;-75
2021/05/25 02:07:49;;;;;;;0.98;0.77;;;9.20;86.60;;;;;;5074273;28;20031;-75
2021/05/25 02:10:27;;;;;;;1.25;0.60;;;9.20;86.70;;;;;;5057808;28;20111;-77
2021/05/25 02:12:55;;;;;;;2.30;0.85;;;9.20;86.80;;;;;;5054068;28;20036;-76
2021/05/25 02:15:21;;;;;;;8.68;0.90;;;9.20;86.40;;;;;;5079214;28;20039;-76
2021/05/25 02:17:47;;;;;;;0.60;0.60;;;9.10;86.50;;;;;;5073743;28;20062;-75
2021/05/25 02:20:13;;;;;;;3.08;0.88;;;9.20;86.60;;;;;;5053288;28;20042;-75
2021/05/25 02:22:38;;;;;;;2.60;0.80;;;9.10;85.90;;;;;;5060287;28;20111;-76
2021/05/25 02:25:05;;;;;;;0.60;0.60;;;9.10;86.10;;;;;;5049310;28;20501;-74
2021/05/25 02:27:31;;;;;;;1.27;0.70;;;9.10;86.20;;;;;;5064770;28;20116;-75
2021/05/25 02:29:57;;;;;;;1.83;1.10;;;9.10;85.70;;;;;;5070644;28;20021;-77
2021/05/25 02:32:23;;;;;;;1.90;0.80;;;9.10;85.90;;;;;;5069386;28;20025;-75
2021/05/25 02:34:49;;;;;;;2.38;1.42;;;9.10;85.80;;;;;;5053820;28;20028;-76
2021/05/25 02:37:14;;;;;;;1.23;0.73;;;9.10;86.90;;;;;;5072498;28;20059;-75
2021/05/25 02:39:40;;;;;;;2.92;0.82;;;9.00;85.80;;;;;;5054569;28;20096;-75
2021/05/25 02:42:06;;;;;;;2.03;0.77;;;9.00;85.20;;;;;;5073072;28;20036;-75
2021/05/25 02:44:31;;;;;;;0.60;0.60;;;9.10;85.40;;;;;;5076147;28;20027;-76
2021/05/25 02:46:57;;;;;;;1.75;0.77;;;9.10;84.90;;;;;;5054235;28;20032;-75
2021/05/25 02:49:23;;;;;;;3.00;0.85;;;9.10;85.10;;;;;;5071133;28;20058;-76
2021/05/25 02:51:49;;;;;;;3.97;0.90;;;9.00;84.60;;;;;;5070904;28;20181;-75
2021/05/25 02:54:14;;;;;;;0.68;0.68;;;9.00;84.90;;;;;;5053625;28;20051;-76
2021/05/25 02:56:40;;;;;;;0.73;0.73;;;9.00;84.20;;;;;;5050858;28;20035;-76
2021/05/25 02:59:06;;;;;;;2.65;0.90;;;8.90;84.50;;;;;;5048549;28;20043;-75
2021/05/25 03:01:32;;;;;;;1.40;0.80;;;8.90;84.20;;;;;;5071496;28;20051;-77
2021/05/25 03:03:58;;;;;;;0.75;0.60;;;8.90;84.30;;;;;;5053690;28;20035;-77
2021/05/25 03:06:24;;;;;;;3.70;0.70;;;8.90;84.00;;;;;;5048788;28;20032;-76
2021/05/25 03:08:49;;;;;;;0.90;0.90;;;8.90;84.20;;;;;;5070849;28;20024;-77
2021/05/25 03:11:15;;;;;;;2.05;0.82;;;8.90;84.30;;;;;;5054160;28;20021;-76
2021/05/25 03:13:41;;;;;;;0.82;0.82;;;8.90;84.50;;;;;;5066903;28;20509;-74
2021/05/25 03:16:07;;;;;;;1.00;0.80;;;8.90;84.30;;;;;;5068384;28;20522;-76
2021/05/25 03:18:32;;;;;;;3.40;1.10;;;8.90;84.10;;;;;;5052313;28;20092;-76
2021/05/25 03:20:58;;;;;;;3.35;0.90;;;8.80;83.60;;;;;;5052742;28;20036;-77
2021/05/25 03:23:24;;;;;;;2.22;0.80;;;8.80;82.90;;;;;;5053248;28;20457;-76
2021/05/25 03:25:52;;;;;;;1.50;1.00;;;8.80;83.20;;;;;;5051210;28;20036;-76
2021/05/25 03:28:18;;;;;;;;;;;8.80;82.40;;;;;;5073073;28;20028;-74
2021/05/25 03:30:44;;;;;;;1.02;0.75;;;8.70;82.20;;;;;;5072301;28;19921;-75
2021/05/25 03:33:10;;;;;;;2.90;0.73;;;8.70;82.40;;;;;;5050182;28;20064;-76
2021/05/25 03:35:36;;;;;;;0.85;0.82;;;8.70;82.70;;;;;;5045618;28;20021;-76
2021/05/25 03:38:04;;;;;;;1.55;1.25;;;8.70;82.90;;;;;;5045163;28;20025;-77
2021/05/25 03:40:29;;;;;;;1.45;0.80;;;8.70;83.10;;;;;;5062587;28;20112;-78
2021/05/25 03:42:55;;;;;;;4.75;0.93;;;8.60;83.60;;;;;;5063391;28;20051;-78
2021/05/25 03:45:23;;;;;;;0.80;0.80;;;8.60;84.10;;;;;;5061562;28;20384;-76
2021/05/25 03:47:49;;;;;;;1.10;1.00;;;8.60;83.50;;;;;;5044990;28;20116;-76
2021/05/25 03:50:16;;;;;;;2.58;0.90;;;8.60;83.30;;;;;;5065205;28;20115;-76
2021/05/25 03:52:44;;;;;;;1.85;1.00;;;8.60;83.70;;;;;;5060277;28;20438;-76
2021/05/25 04:00:32;;;;;;;2.90;0.88;;;8.60;83.60;;;;;;5063849;28;20078;-77
2021/05/25 04:02:58;;;;;;;0.82;0.82;;;8.50;82.80;;;;;;5063418;28;20029;-77
2021/05/25 04:05:24;;;;;;;0.95;0.88;;;8.50;82.10;;;;;;5068479;28;20025;-77
2021/05/25 04:07:50;;;;;;;1.73;0.80;;;8.40;82.60;;;;;;5073197;28;20032;-76
2021/05/25 04:10:15;;;;;;;2.03;0.90;;;8.40;81.80;;;;;;5046087;28;20078;-76
2021/05/25 04:12:41;;;;;;;0.43;0.43;;;8.30;81.40;;;;;;5067883;28;20052;-77
2021/05/25 04:15:08;;;;;;;2.72;0.80;;;8.30;81.80;;;;;;5066032;28;20028;-75
2021/05/25 04:17:33;;;;;;;2.72;0.63;;;8.30;82.10;;;;;;5048547;28;20575;-76
2021/05/25 04:19:59;;;;;;;1.77;0.80;;;8.30;81.80;;;;;;5063504;28;20028;-75
2021/05/25 04:22:25;;;;;;;4.43;1.15;;;8.30;82.30;;;;;;5067245;28;20028;-75
2021/05/25 04:24:50;;;;;;;0.60;0.60;;;8.30;82.80;;;;;;5069159;28;20027;-76
2021/05/25 04:27:16;;;;;;;1.52;1.00;;;8.30;83.10;;;;;;5065316;28;20086;-75
2021/05/25 04:29:41;;;;;;;0.70;0.70;;;8.20;82.80;;;;;;5065588;28;20029;-77
2021/05/25 04:32:08;;;;;;;1.48;0.75;;;8.30;83.40;;;;;;5066207;28;20032;-76
2021/05/25 04:34:34;;;;;;;1.70;0.82;;;8.20;82.40;;;;;;5070053;28;20016;-77
2021/05/25 04:36:59;;;;;;;0.70;0.70;;;8.30;83.20;;;;;;5068647;28;20036;-76
2021/05/25 04:39:25;;;;;;;1.67;0.90;;;8.20;82.10;;;;;;5069316;28;20038;-78
2021/05/25 04:41:51;;;;;;;0.70;0.70;;;8.20;82.20;;;;;;5069496;28;20032;-76
2021/05/25 04:44:16;;;;;;;1.52;0.80;;;8.20;82.30;;;;;;5067294;28;20036;-76
2021/05/25 04:46:42;;;;;;;2.65;1.00;;;8.30;82.20;;;;;;5048300;28;20040;-76
2021/05/25 04:49:08;;;;;;;1.48;0.90;;;8.30;82.10;;;;;;5071820;28;20490;-75
2021/05/25 04:51:33;;;;;;;0.95;0.88;;;8.30;81.80;;;;;;5066257;28;20127;-77
2021/05/25 04:53:59;;;;;;;4.43;1.17;;;8.30;81.70;;;;;;5069416;28;20087;-76
2021/05/25 04:56:25;;;;;;;1.42;0.80;;;8.30;81.60;;;;;;5064329;28;20575;-77
2021/05/25 04:58:50;;;;;;;2.63;0.88;;;8.30;81.50;;;;;;5062697;28;20087;-76
2021/05/25 05:01:16;;;;;;;2.63;1.10;;;8.30;81.70;;;;;;5063754;28;20037;-76
2021/05/25 05:03:42;;;;;;;1.63;0.70;;;8.30;81.30;;;;;;5065620;28;20028;-77
2021/05/25 05:06:07;;;;;;;1.67;0.95;;;8.30;81.60;;;;;;5063565;28;20035;-77
2021/05/25 05:08:33;;;;;;;1.90;0.80;;;8.40;81.10;;;;;;5066299;28;20024;-78
2021/05/25 05:10:59;;;;;;;2.90;0.80;;;8.40;81.60;;;;;;5065075;28;20017;-78
2021/05/25 05:13:24;;;;;;;0.73;0.73;;;8.50;81.30;;;;;;5065431;28;20029;-76
2021/05/25 05:15:50;;;;;;;2.70;0.73;;;8.50;80.70;;;;;;5065101;28;20092;-76
2021/05/25 05:18:16;;;;;;;0.70;0.70;;;8.60;80.30;;;;;;5047823;28;20021;-77
2021/05/25 05:20:41;;;;;;;2.15;0.80;;;8.60;80.50;;;;;;5069636;28;20031;-76
2021/05/25 05:23:07;;;;;;;3.25;0.80;;;8.60;79.40;;;;;;5065739;28;20435;-75
2021/05/25 05:25:33;;;;;;;1.60;0.70;;;8.60;79.20;;;;;;5063740;28;20025;-77
2021/05/25 05:27:58;;;;;;;2.28;0.90;;;8.80;80.00;;;;;;5065926;28;20108;-77
2021/05/25 05:30:24;;;;;;;1.95;0.70;;;8.90;78.50;;;;;;5064946;28;20029;-78
2021/05/25 05:32:51;;;;;;;0.70;0.70;;;9.00;78.60;;;;;;5066481;28;20029;-77
2021/05/25 05:35:17;;;;;;;0.65;0.65;;;9.00;80.10;;;;;;5066011;28;20035;-78
2021/05/25 05:37:42;;;;;;;1.30;0.80;;;9.10;80.30;;;;;;5066254;28;20029;-75
2021/05/25 05:40:08;;;;;;;0.43;0.40;;;9.20;78.10;;;;;;5069672;28;20402;-76
2021/05/25 05:42:34;;;;;;;1.58;0.90;;;9.20;76.20;;;;;;5071073;28;20170;-79
2021/05/25 05:45:00;;;;;;;1.92;0.98;;;9.20;75.50;;;;;;5073890;28;20469;-77
2021/05/25 05:47:25;;;;;;;1.50;0.70;;;9.20;77.00;;;;;;5066767;28;20142;-76
2021/05/25 05:49:51;;;;;;;2.53;1.17;;;9.20;75.20;;;;;;5072900;28;20100;-77
2021/05/25 05:52:17;;;;;;;1.35;0.60;;;9.30;75.10;;;;;;5066190;28;20090;-77
2021/05/25 05:54:42;;;;;;;3.08;0.90;;;9.30;73.90;;;;;;5054418;28;20028;-77
2021/05/25 05:57:08;;;;;;;3.25;1.20;;;9.30;73.40;;;;;;5055229;28;20462;-76
2021/05/25 05:59:34;;;;;;;1.60;0.63;;;9.30;74.40;;;;;;5065510;28;20016;-77
2021/05/25 06:02:00;;;;;;;1.58;0.70;;;9.30;73.50;;;;;;5070205;28;20159;-79
2021/05/25 06:04:26;;;;;;;2.85;0.98;;;9.20;71.10;;;;;;5056843;28;20063;-80
2021/05/25 06:06:51;;;;;;;5.22;0.82;;;9.20;71.60;;;;;;5079606;28;20032;-82
2021/05/25 06:09:17;;;;;;;4.25;1.15;;;9.20;72.40;;;;;;5055955;28;20025;-80
2021/05/25 06:11:43;;;;;;;4.60;0.98;;;9.20;73.20;;;;;;5055836;28;20052;-79
2021/05/25 06:14:08;;;;;;;3.63;0.70;;;9.30;73.00;;;;;;5057321;28;20032;-80
2021/05/25 06:16:35;;;;;;;4.32;0.68;;;9.40;73.10;;;;;;5069201;28;20013;-81
2021/05/25 06:19:00;;;;;;;3.22;1.10;;;9.40;73.20;;;;;;5070047;28;20028;-81
2021/05/25 06:21:26;;;;;;;1.48;0.88;;;9.40;72.70;;;;;;5051393;28;20036;-79
2021/05/25 06:23:52;;;;;;;2.17;0.80;;;9.50;72.80;;;;;;5045048;28;20112;-79
2021/05/25 06:26:20;;;;;;;1.23;0.70;;;9.50;71.90;;;;;;5046735;28;20021;-80
2021/05/25 06:28:46;;;;;;;0.60;0.55;;;9.60;70.50;;;;;;5071634;28;20732;-81
2021/05/25 06:31:12;;;;;;;1.88;0.80;;;9.60;72.10;;;;;;5064715;28;20033;-79
2021/05/25 06:33:38;;;;;;;0.70;0.70;;;9.70;71.50;;;;;;5049471;28;20083;-80
2021/05/25 06:36:04;;;;;;;0.75;0.50;;;9.80;70.50;;;;;;5068752;28;20028;-79
2021/05/25 06:38:30;;;;;;;1.65;0.47;;;9.80;69.20;;;;;;5063204;28;20033;-81
2021/05/25 06:40:55;;;;;;;6.38;1.02;;;9.80;66.80;;;;;;5047119;28;20108;-79
2021/05/25 06:43:21;;;;;;;2.70;0.88;;;9.80;68.10;;;;;;5050855;28;21582;-81
2021/05/25 06:45:47;;;;;;;2.10;0.60;;;9.80;68.50;;;;;;5064601;28;20336;-79
2021/05/25 06:48:12;;;;;;;2.60;0.95;;;9.90;67.60;;;;;;5067530;28;20021;-82
2021/05/25 06:50:38;;;;;;;1.92;0.60;;;9.90;66.30;;;;;;5065686;28;20454;-79
2021/05/25 06:53:04;;;;;;;1.15;0.52;;;10.00;68.20;;;;;;5066078;28;20395;-79
2021/05/25 06:55:31;;;;;;;1.17;0.82;;;10.00;66.50;;;;;;5053490;28;20032;-81
2021/05/25 06:57:57;;;;;;;0.82;0.60;;;9.90;67.00;;;;;;5045679;28;20036;-79
2021/05/25 07:00:23;;;;;;;2.85;0.60;;;9.90;67.00;;;;;;5063601;28;20028;-80
2021/05/25 07:02:49;;;;;;;0.50;0.50;;;9.90;66.00;;;;;;5068137;28;20386;-80
2021/05/25 07:05:15;;;;;;;0.50;0.50;;;9.80;65.80;;;;;;5067071;28;20084;-81
2021/05/25 07:07:41;;;;;;;3.10;0.60;;;9.90;67.10;;;;;;5061632;28;20080;-81
2021/05/25 07:10:07;;;;;;;2.58;0.80;;;10.00;66.20;;;;;;5044666;28;20078;-80
2021/05/25 07:12:33;;;;;;;1.60;0.63;;;10.20;66.90;;;;;;5065089;28;20028;-79
2021/05/25 07:14:59;;;;;;;1.15;0.70;;;10.30;64.80;;;;;;5047394;28;20075;-80
2021/05/25 07:17:25;;;;;;;2.42;0.70;;;10.30;64.10;;;;;;5065991;28;20051;-79
2021/05/25 07:19:50;;;;;;;3.30;0.90;;;10.40;62.60;;;;;;5068141;28;20044;-80
2021/05/25 07:22:16;;;;;;;3.85;0.63;;;10.50;65.30;;;;;;5063067;28;20025;-80
2021/05/25 07:24:42;;;;;;;1.75;0.70;;;10.50;63.10;;;;;;5053473;28;20023;-79
2021/05/25 07:27:07;;;;;;;2.05;0.55;;;10.60;65.10;;;;;;5070420;28;20040;-80
2021/05/25 07:29:33;;;;;;;2.05;0.50;;;10.70;65.30;;;;;;5071046;28;20059;-81
2021/05/25 07:31:59;;;;;;;1.65;0.82;;;10.70;64.00;;;;;;5046304;28;20394;-80
2021/05/25 07:34:25;;;;;;;3.85;0.70;;;10.70;63.40;;;;;;5050254;28;20421;-81
2021/05/25 07:36:51;;;;;;;1.13;0.63;;;10.70;67.10;;;;;;5061041;28;20127;-80
2021/05/25 07:39:17;;;;;;;1.80;0.60;;;10.70;64.20;;;;;;5063889;28;20505;-80
2021/05/25 07:41:44;;;;;;;2.20;0.63;;;10.60;65.00;;;;;;5069396;28;20029;-81
2021/05/25 07:44:10;;;;;;;3.88;0.85;;;10.60;64.50;;;;;;5075502;28;20486;-81
2021/05/25 07:46:35;;;;;;;3.50;0.88;;;10.60;64.40;;;;;;5069699;28;20020;-81
2021/05/25 07:49:01;;;;;;;2.50;0.93;;;10.70;64.70;;;;;;5068405;28;20024;-81
2021/05/25 07:51:27;;;;;;;2.38;0.73;;;10.80;65.00;;;;;;5071045;28;20020;-81
2021/05/25 07:53:53;;;;;;;1.52;0.70;;;10.90;64.70;;;;;;5066235;28;20376;-82
2021/05/25 07:56:19;;;;;;;1.65;0.60;;;10.90;65.10;;;;;;5068577;28;20048;-81
2021/05/25 07:58:45;;;;;;;1.75;0.70;;;11.10;63.70;;;;;;5072129;28;20040;-82
2021/05/25 08:01:11;;;;;;;3.75;0.65;;;11.30;66.60;;;;;;5052769;28;20046;-83
2021/05/25 08:03:36;;;;;;;2.42;1.05;;;11.40;61.60;;;;;;5068760;28;20114;-82
2021/05/25 08:06:03;;;;;;;1.00;0.60;;;11.50;64.20;;;;;;5067795;28;20050;-80
2021/05/25 08:08:32;;;;;;;1.58;0.70;;;11.60;62.60;;;;;;5068119;28;20054;-80
2021/05/25 08:10:59;;;;;;;3.53;0.70;;;11.70;60.30;;;;;;5047658;28;20033;-82
2021/05/25 08:13:25;;;;;;;1.05;0.63;;;11.70;59.20;;;;;;5073268;28;20047;-82
2021/05/25 08:15:53;;;;;;;1.08;0.60;;;11.60;59.30;;;;;;5071562;28;20402;-81
2021/05/25 08:18:40;;;;;;;1.23;0.70;;;11.60;60.60;;;;;;5081375;28;20013;-83
2021/05/25 08:21:06;;;;;;;1.20;0.63;;;11.70;62.80;;;;;;5057628;28;20382;-81
2021/05/25 08:23:32;;;;;;;1.42;0.57;;;11.70;58.10;;;;;;5051803;28;20067;-84
2021/05/25 08:25:59;;;;;;;2.70;0.50;;;11.60;60.00;;;;;;5066210;28;20158;-81
2021/05/25 08:28:25;;;;;;;2.60;0.80;;;11.80;62.30;;;;;;5054004;28;20402;-81
2021/05/25 08:30:51;;;;;;;2.20;0.73;;;11.90;63.10;;;;;;5054559;28;20028;-81
2021/05/25 08:33:17;;;;;;;4.15;0.98;;;11.90;59.40;;;;;;5061440;28;21505;-81
2021/05/25 08:35:45;;;;;;;4.50;1.02;;;11.70;56.50;;;;;;5074572;28;20047;-82
2021/05/25 08:38:14;;;;;;;4.57;1.23;;;11.70;60.00;;;;;;5070855;28;20051;-83
2021/05/25 08:40:40;;;;;;;3.50;0.73;;;12.00;62.30;;;;;;5056347;28;20244;-80
2021/05/25 08:43:06;;;;;;;2.28;0.63;;;12.10;57.90;;;;;;5053333;28;20083;-82
2021/05/25 08:45:33;;;;;;;1.55;0.70;;;12.20;62.40;;;;;;5050513;28;20883;-82
2021/05/25 08:47:59;;;;;;;2.00;0.88;;;12.40;60.40;;;;;;5071198;28;20063;-83
2021/05/25 08:50:28;;;;;;;6.15;1.17;;;12.30;57.90;;;;;;5076437;28;20033;-84
2021/05/25 08:53:06;;;;;;;4.70;0.77;;;12.30;60.40;;;;;;5075778;28;20111;-85
2021/05/25 08:55:34;;;;;;;1.60;0.60;;;12.30;60.60;;;;;;5076650;28;20032;-83
2021/05/25 08:58:00;;;;;;;4.50;0.90;;;12.30;59.90;;;;;;5053892;28;20033;-79
2021/05/25 09:00:26;;;;;;;8.32;1.20;;;12.40;59.60;;;;;;5068375;28;20028;-79
2021/05/25 09:02:53;;;;;;;2.65;0.77;;;12.30;57.90;;;;;;5055083;28;20063;-79
2021/05/25 09:05:20;;;;;;;5.28;0.77;;;12.10;56.30;;;;;;5072116;28;20017;-79
2021/05/25 09:07:51;;;;;;;2.30;0.60;;;12.10;56.10;;;;;;5075214;28;20035;-79
2021/05/25 09:10:40;;;;;;;3.70;0.80;;;12.10;57.20;;;;;;5073108;28;20431;-79
2021/05/25 09:13:14;;;;;;;0.80;0.70;;;12.20;60.50;;;;;;5076682;28;20608;-80
2021/05/25 09:15:52;;;;;;;1.80;0.70;;;12.40;58.30;;;;;;5064790;28;20021;-79
2021/05/25 09:18:34;;;;;;;1.42;0.70;;;12.20;57.10;;;;;;5067577;28;20025;-80
2021/05/25 09:21:00;;;;;;;2.60;0.80;;;12.00;57.60;;;;;;5071324;28;20039;-82
2021/05/25 09:23:32;;;;;;;2.00;0.65;;;11.70;55.90;;;;;;5065432;28;20050;-79
2021/05/25 09:26:05;;;;;;;2.35;0.57;;;11.70;56.10;;;;;;5053846;28;20017;-79
2021/05/25 09:28:31;;;;;;;4.10;0.70;;;11.80;56.00;;;;;;5070387;28;20035;-79
2021/05/25 09:30:57;;;;;;;2.58;0.80;;;11.90;59.20;;;;;;5062389;28;20032;-79
2021/05/25 09:33:23;;;;;;;3.40;0.57;;;11.90;55.20;;;;;;5045409;28;20020;-78
2021/05/25 09:35:50;;;;;;;1.42;0.80;;;12.00;57.90;;;;;;5062247;28;20067;-79
2021/05/25 09:38:28;;;;;;;1.73;0.50;;;12.30;59.40;;;;;;5066306;28;20028;-79
2021/05/25 09:40:58;;;;;;;;;;;12.60;56.10;;;;;;5065717;28;20028;-79
2021/05/25 09:43:27;;;;;;;1.85;0.75;;;12.70;55.20;;;;;;5054185;28;19919;-79
2021/05/25 09:46:02;;;;;;;0.93;0.47;;;12.80;53.60;;;;;;5067849;28;20161;-78
2021/05/25 09:48:50;;;;;;;1.98;0.50;;;12.80;52.00;;;;;;5064220;28;20055;-79
2021/05/25 09:51:23;;;;;;;4.45;0.70;;;12.80;52.80;;;;;;5052346;28;20028;-80
2021/05/25 09:53:50;;;;;;;2.30;0.40;;;12.90;54.50;;;;;;5073259;28;20698;-80
2021/05/25 09:56:23;;;;;;;3.05;0.70;;;13.10;57.20;;;;;;5070136;28;20111;-80
2021/05/25 09:58:49;;;;;;;0.90;0.50;;;13.20;56.60;;;;;;5072423;28;20647;-79
2021/05/25 10:01:14;;;;;;;3.15;0.60;;;13.20;55.70;;;;;;5065536;28;20036;-80
2021/05/25 10:03:46;;;;;;;0.55;0.50;;;13.20;55.40;;;;;;5065044;28;20036;-80
2021/05/25 10:06:12;;;;;;;1.30;0.50;;;13.20;57.00;;;;;;5064554;28;20017;-79
2021/05/25 10:08:41;;;;;;;1.67;0.47;;;13.20;58.90;;;;;;5064720;28;21833;-80
2021/05/25 10:11:06;;;;;;;;;;;13.10;56.00;;;;;;5057440;28;20092;-79
2021/05/25 10:13:32;;;;;;;2.40;0.85;;;13.20;56.80;;;;;;5063771;28;20454;-80
2021/05/25 10:15:58;;;;;;;0.73;0.63;;;13.20;57.40;;;;;;5064125;28;20064;-79
2021/05/25 10:21:09;;;;;;;1.17;0.40;;;13.40;58.60;;;;;;5069530;28;20024;-80
2021/05/25 10:23:36;;;;;;;2.20;0.60;;;13.40;57.90;;;;;;5068224;28;20024;-80
2021/05/25 10:26:05;;;;;;;0.63;0.45;;;13.30;55.50;;;;;;5064149;28;20473;-80
2021/05/25 10:28:32;;;;;;;5.13;0.63;;;13.30;56.80;;;;;;5066199;28;20030;-80
2021/05/25 10:30:58;;;;;;;2.78;0.68;;;13.50;56.00;;;;;;5061178;28;20056;-80
2021/05/25 10:33:26;;;;;;;2.25;0.47;;;13.50;53.30;;;;;;5064855;28;20046;-80
2021/05/25 10:35:58;;;;;;;1.65;0.60;;;13.20;51.80;;;;;;5067399;28;20028;-80
2021/05/25 10:38:42;;;;;;;1.20;0.52;;;13.20;55.60;;;;;;5062921;28;20024;-81
2021/05/25 10:41:08;;;;;;;1.33;0.50;;;13.40;52.90;;;;;;5042547;28;20031;-80
2021/05/25 10:43:45;;;;;;;2.03;0.60;;;13.20;51.20;;;;;;5044866;28;20028;-79
2021/05/25 10:46:11;;;;;;;2.20;0.68;;;13.00;51.80;;;;;;5066016;28;20017;-80
2021/05/25 10:51:46;;;;;;;3.65;0.60;;;13.00;53.60;;;;;;5069653;28;20035;-79
2021/05/25 10:54:25;;;;;;;0.50;0.30;;;13.20;54.10;;;;;;5068916;28;20036;-79
2021/05/25 10:56:52;;;;;;;1.60;0.45;;;13.10;51.40;;;;;;5065711;28;20089;-78
2021/05/25 10:59:19;;;;;;;1.27;0.52;;;13.00;51.50;;;;;;5066355;28;20120;-79
2021/05/25 11:01:58;;;;;;;0.68;0.50;;;12.90;52.50;;;;;;5060950;28;20040;-78
2021/05/25 11:04:35;;;;;;;2.25;0.43;;;13.20;52.70;;;;;;5062736;28;20029;-79
2021/05/25 11:07:01;;;;;;;2.53;0.50;;;13.40;52.20;;;;;;5058689;28;20059;-79
2021/05/25 11:09:28;;;;;;;3.13;0.63;;;13.30;54.00;;;;;;5063264;28;20115;-79
2021/05/25 11:12:15;;;;;;;1.70;0.50;;;13.20;51.30;;;;;;5059947;28;20078;-78
2021/05/25 11:15:13;;;;;;;1.95;0.73;;;13.30;51.80;;;;;;5064884;28;20021;-79
2021/05/25 11:17:39;;;;;;;0.88;0.55;;;13.20;49.10;;;;;;5063947;28;20040;-80
2021/05/25 11:21:31;;;;;;;1.13;0.50;;;13.10;48.40;;;;;;5067405;28;20068;-80
2021/05/25 11:23:57;;;;;;;0.70;0.45;;;13.20;54.30;;;;;;4949741;28;20556;-80
2021/05/25 11:26:50;;;;;;;3.78;0.70;;;13.30;52.90;;;;;;4954018;28;20421;-80
2021/05/25 11:29:25;;;;;;;5.90;0.68;;;13.50;52.70;;;;;;5066739;28;20037;-80
2021/05/25 11:31:51;;;;;;;2.60;0.43;;;13.60;51.50;;;;;;5064231;28;21292;-79
2021/05/25 11:34:21;;;;;;;3.17;0.80;;;13.70;52.60;;;;;;5060984;28;20021;-79
2021/05/25 11:37:03;;;;;;;1.00;0.40;;;13.80;50.50;;;;;;5065964;28;20089;-80
2021/05/25 11:39:32;;;;;;;0.47;0.45;;;13.80;51.40;;;;;;5065360;28;20385;-79
2021/05/25 11:41:58;;;;;;;2.20;0.43;;;14.00;52.30;;;;;;5063394;28;20055;-80
2021/05/25 11:44:32;;;;;;;0.20;0.20;;;14.00;50.10;;;;;;5066029;28;20071;-80
2021/05/25 11:46:58;;;;;;;0.63;0.40;;;13.80;46.80;;;;;;5062678;28;20351;-80
2021/05/25 11:49:25;;;;;;;0.20;0.20;;;13.90;49.50;;;;;;5060394;28;21901;-79
2021/05/25 11:51:51;;;;;;;1.63;0.32;;;13.90;48.10;;;;;;5041814;28;20021;-80
2021/05/25 11:54:20;;;;;;;0.80;0.30;;;14.00;47.00;;;;;;5064211;28;20075;-79
2021/05/25 11:56:51;;;;;;;1.95;0.50;;;14.10;48.20;;;;;;5050470;28;20027;-79
2021/05/25 11:59:19;;;;;;;5.65;0.68;;;14.00;43.10;;;;;;5066652;28;20024;-79
2021/05/25 12:01:46;;;;;;;;;;;14.00;44.00;;;;;;5063664;28;20170;-80
2021/05/25 12:04:13;;;;;;;2.40;0.50;;;14.20;47.50;;;;;;5066746;28;19971;-80
2021/05/25 12:06:52;;;;;;;3.17;0.60;;;14.30;49.90;;;;;;5062973;28;20031;-79
2021/05/25 12:09:19;;;;;;;2.97;0.50;;;14.20;46.10;;;;;;5063731;28;20040;-78
2021/05/25 12:11:47;;;;;;;1.10;0.60;;;14.10;47.70;;;;;;5063386;28;20021;-78
2021/05/25 12:14:14;;;;;;;1.40;0.40;;;14.30;49.00;;;;;;5068819;28;20025;-78
2021/05/25 12:16:42;;;;;;;0.73;0.60;;;14.20;44.70;;;;;;5058446;28;20028;-79
2021/05/25 12:19:08;;;;;;;2.95;0.65;;;14.00;48.30;;;;;;5064203;28;20029;-79
2021/05/25 12:21:35;;;;;;;2.97;0.60;;;13.90;46.80;;;;;;5070422;28;20401;-80
2021/05/25 12:24:01;;;;;;;1.85;0.70;;;13.80;47.60;;;;;;5064770;28;20021;-79
2021/05/25 12:26:27;;;;;;;0.52;0.50;;;13.60;46.00;;;;;;5068369;28;20032;-78
2021/05/25 12:28:55;;;;;;;0.43;0.43;;;13.30;44.70;;;;;;5063565;28;20078;-78
2021/05/25 12:31:21;;;;;;;1.10;0.47;;;13.20;48.10;;;;;;5065419;28;20036;-78
2021/05/25 12:33:49;;;;;;;1.85;0.68;;;13.20;47.50;;;;;;5044177;28;20029;-78
2021/05/25 12:36:29;;;;;;;0.45;0.45;;;13.40;46.70;;;;;;5064731;28;20165;-78
2021/05/25 12:39:04;;;;;;;0.98;0.55;;;13.60;47.70;;;;;;5064487;28;20454;-78
2021/05/25 12:41:47;;;;;;;2.28;0.60;;;13.60;46.10;;;;;;5066676;28;20071;-79
2021/05/25 12:44:16;;;;;;;0.60;0.60;;;13.60;49.50;;;;;;5064705;28;20024;-78
2021/05/25 12:47:04;;;;;;;1.63;0.40;;;13.60;48.60;;;;;;5063322;28;20577;-79
2021/05/25 12:49:36;;;;;;;;;;;13.90;50.90;;;;;;5069568;28;20027;-78
2021/05/25 12:52:20;;;;;;;1.63;0.40;;;14.00;50.00;;;;;;5066726;28;19965;-78
2021/05/25 12:54:57;;;;;;;2.70;0.70;;;14.00;46.50;;;;;;5071522;28;20520;-79
2021/05/25 12:57:26;;;;;;;2.65;0.70;;;14.00;46.90;;;;;;5064560;28;20037;-78
2021/05/25 13:00:02;;;;;;;2.58;0.70;;;13.90;49.90;;;;;;5065681;28;20502;-79
2021/05/25 13:02:38;;;;;;;0.88;0.70;;;13.90;52.20;;;;;;5063292;28;20044;-79
2021/05/25 13:05:06;;;;;;;2.25;0.68;;;14.00;50.50;;;;;;5066551;28;20078;-78
2021/05/25 13:07:51;;;;;;;1.83;1.00;;;14.20;50.20;;;;;;5065412;28;20071;-79